EDT,Max TemperatureF,Mean TemperatureF,Min TemperatureF,Max Dew PointF,MeanDew PointF,Min DewpointF,Max Humidity, Mean Humidity, Min Humidity, Max Sea Level PressureIn, Mean Sea Level PressureIn, Min Sea Level PressureIn, Max VisibilityMiles, Mean VisibilityMiles, Min VisibilityMiles, Max Wind SpeedMPH, Mean Wind SpeedMPH, Max Gust SpeedMPH,PrecipitationIn, CloudCover, Events, WindDirDegrees
2013-5-1,64,59,54,56,54,52,93,83,72,30.32,30.25,30.17,10,9,2,20,11,24,T,8,Rain,48
2013-5-2,61,57,53,54,51,46,86,82,77,30.33,30.30,30.26,10,10,7,18,10,23,0.00,7,,59
2013-5-3,66,57,48,52,47,41,100,74,48,30.27,30.22,30.16,10,10,10,22,13,30,0.00,3,,63
2013-5-4,61,54,47,52,45,40,89,72,55,30.19,30.13,30.07,10,10,4,23,16,28,0.01,7,Rain,63
2013-5-5,55,52,48,53,47,43,93,82,71,30.09,30.02,29.96,10,8,3,23,17,30,0.14,8,Rain,65
2013-5-6,66,60,54,61,56,53,100,89,78,29.97,29.89,29.81,10,6,1,22,10,28,1.58,7,Rain-Thunderstorm,81
2013-5-7,68,61,54,56,53,46,100,74,48,29.94,29.88,29.84,10,8,2,26,5,35,0.04,7,Rain,252
2013-5-8,69,61,52,59,54,50,100,81,61,30.01,29.96,29.91,10,9,1,17,4,23,0.27,6,Rain-Thunderstorm,250
2013-5-9,80,65,50,57,53,48,100,70,39,30.06,30.01,29.98,10,6,0,15,6,20,0.00,1,Fog,249
2013-5-10,83,70,57,60,57,54,86,64,42,30.06,30.00,29.92,10,10,10,20,6,26,0.00,2,,212
2013-5-11,79,71,62,63,59,57,93,71,48,29.93,29.85,29.78,10,9,2,18,9,26,0.19,5,Rain-Thunderstorm,244
2013-5-12,70,60,50,60,43,30,93,60,26,30.04,29.91,29.81,10,10,10,22,10,29,T,3,Rain,314
2013-5-13,66,55,43,36,31,25,70,46,22,30.18,30.10,30.03,10,10,10,18,6,22,0.00,2,,339
2013-5-14,70,55,40,42,37,32,82,56,29,30.25,30.16,30.04,10,10,10,17,6,22,0.00,0,,217
2013-5-15,87,72,56,59,53,42,72,55,37,30.04,29.98,29.89,10,10,10,18,10,24,0.00,1,,223
2013-5-16,83,73,62,59,57,55,84,62,40,29.98,29.94,29.89,10,10,9,17,8,24,0.00,0,,253
2013-5-17,85,73,61,61,59,55,84,62,40,30.08,30.03,29.98,10,10,10,15,4,17,0.00,1,,177
2013-5-18,74,69,63,65,63,61,100,87,73,30.17,30.11,30.06,10,9,5,15,5,17,0.05,6,Rain,104
2013-5-19,73,68,63,67,65,62,100,90,79,30.15,30.10,30.04,10,8,1,15,7,20,0.19,7,Rain,163
2013-5-20,80,74,67,70,66,64,100,84,67,30.12,30.07,30.01,10,7,2,10,6,22,0.11,7,Rain-Thunderstorm,192
2013-5-21,87,77,67,69,67,64,100,78,55,30.07,30.00,29.92,10,6,0,17,7,21,T,5,Fog,207
2013-5-22,83,74,65,67,65,63,93,76,58,30.03,29.96,29.88,10,9,2,18,10,24,0.16,5,Rain,213
2013-5-23,77,70,63,66,64,61,100,85,69,29.97,29.91,29.81,10,10,5,22,6,25,0.34,6,Rain-Thunderstorm,230
2013-5-24,69,59,49,61,47,34,93,62,31,30.19,30.00,29.84,10,10,10,25,9,31,0.00,2,,319
2013-5-25,74,59,43,39,35,29,76,48,20,30.27,30.20,30.13,10,10,10,18,7,25,0.00,0,,324
2013-5-26,74,64,53,50,42,34,65,48,30,30.27,30.21,30.16,10,10,10,14,3,18,T,3,Rain,305
2013-5-27,79,66,53,54,51,48,83,61,39,30.27,30.21,30.14,10,10,10,17,6,21,0.00,1,,190
2013-5-28,84,73,62,63,61,55,93,69,44,30.22,30.17,30.13,10,10,10,20,11,24,0.00,1,,206
2013-5-29,85,74,62,63,61,59,90,67,44,30.22,30.18,30.15,10,10,10,16,9,21,0.00,0,,210
2013-5-30,85,74,63,63,61,57,93,67,40,30.27,30.21,30.17,10,10,9,15,7,24,0.00,1,,201
2013-5-31,85,75,65,66,64,61,93,71,48,30.21,30.16,30.10,10,10,10,16,8,20,0.00,1,,202